Time;durP1;ratioP1;P1;durP2;ratioP2;P2;SDS_P1;SDS_P2;PMS_P1;PMS_P2;Temp;Humidity;BMP_temperature;BMP_pressure;BME280_temperature;BME280_humidity;BME280_pressure;Samples;Min_cycle;Max_cycle;Signal;HPM_P1;HPM_P2
2024/02/26 00:00:12;;;;;;;;;;;;;;;19.74;46.24;99940.41;2065865;28;6049;-62
2024/02/26 00:01:14;;;;;;;;;;;;;;;19.75;46.21;99947.63;2067171;28;2457;-63
2024/02/26 00:02:16;;;;;;;;;;;;;;;19.73;46.21;99936.06;2068003;28;2126;-62
2024/02/26 00:03:17;;;;;;;;;;;;;;;19.73;46.37;99938.94;2066668;28;2089;-62
2024/02/26 00:04:19;;;;;;;;;;;;;;;19.72;46.31;99937.44;2067319;28;2043;-62
2024/02/26 00:05:20;;;;;;;;;;;;;;;19.72;46.30;99932.44;2066658;28;2302;-62
2024/02/26 00:06:22;;;;;;;;;;;;;;;19.72;46.31;99935.31;2066946;28;2207;-62
2024/02/26 00:07:23;;;;;;;;;;;;;;;19.72;46.25;99931.72;2066820;28;2243;-62
2024/02/26 00:08:24;;;;;;;;;;;;;;;19.71;46.18;99927.38;2065784;28;2147;-62
2024/02/26 00:09:26;;;;;;;;;;;;;;;19.70;46.28;99938.13;2067028;28;2091;-62
2024/02/26 00:10:27;;;;;;;;;;;;;;;19.70;46.37;99941.00;2066580;28;2154;-63
2024/02/26 00:11:29;;;;;;;;;;;;;;;19.70;46.18;99937.38;2066248;28;2146;-62
2024/02/26 00:12:30;;;;;;;;;;;;;;;19.70;46.24;99934.50;2066518;28;2102;-62
2024/02/26 00:13:31;;;;;;;;;;;;;;;19.70;46.14;99934.50;2067550;28;2095;-62
2024/02/26 00:14:33;;;;;;;;;;;;;;;19.70;46.21;99940.25;2066867;28;2405;-61
2024/02/26 00:15:35;;;;;;;;;;;;;;;19.69;46.18;99930.19;2067710;28;2200;-62
2024/02/26 00:16:39;;;;;;;;;;;;;;;19.67;46.26;99937.28;2066130;28;2095;-62
2024/02/26 00:17:40;;;;;;;;;;;;;;;19.67;46.22;99936.56;2068199;28;2142;-62
2024/02/26 00:18:42;;;;;;;;;;;;;;;19.67;46.26;99937.28;2066440;28;2130;-65
2024/02/26 00:19:45;;;;;;;;;;;;;;;19.67;46.10;99930.81;2067082;28;1936;-62
2024/02/26 00:20:46;;;;;;;;;;;;;;;19.64;46.12;99924.25;2067539;28;2463;-62
2024/02/26 00:21:48;;;;;;;;;;;;;;;19.67;46.16;99925.78;2068477;28;2099;-62
2024/02/26 00:22:49;;;;;;;;;;;;;;;19.67;46.22;99925.06;2067440;28;2103;-63
2024/02/26 00:23:51;;;;;;;;;;;;;;;19.68;46.10;99920.81;2067388;28;2209;-63
2024/02/26 00:24:52;;;;;;;;;;;;;;;19.68;46.19;99923.69;2065859;28;2136;-63
2024/02/26 00:25:54;;;;;;;;;;;;;;;19.69;46.26;99916.53;2065123;28;2126;-63
2024/02/26 00:26:55;;;;;;;;;;;;;;;19.69;46.26;99919.41;2067574;28;2112;-63
2024/02/26 00:27:57;;;;;;;;;;;;;;;19.69;46.19;99925.16;2067698;28;2235;-63
2024/02/26 00:28:58;;;;;;;;;;;;;;;19.69;46.09;99928.03;2067116;28;2099;-62
2024/02/26 00:30:00;;;;;;;;;;;;;;;19.70;46.26;99928.75;2066142;28;2189;-62
2024/02/26 00:31:02;;;;;;;;;;;;;;;19.70;46.13;99929.53;2066637;28;6800;-63
2024/02/26 00:32:03;;;;;;;;;;;;;;;19.71;46.19;99924.50;2064433;28;2115;-63
2024/02/26 00:33:05;;;;;;;;;;;;;;;19.70;46.22;99929.53;2066814;28;2111;-62
2024/02/26 00:34:06;;;;;;;;;;;;;;;19.70;46.24;99918.03;2065679;28;2067;-63
2024/02/26 00:35:09;;;;;;;;;;;;;;;19.71;46.19;99918.75;2067923;28;2102;-63
2024/02/26 00:36:10;;;;;;;;;;;;;;;19.72;46.24;99920.22;2067445;28;2163;-63
2024/02/26 00:37:12;;;;;;;;;;;;;;;19.72;46.25;99914.47;2064975;28;2142;-63
2024/02/26 00:38:13;;;;;;;;;;;;;;;19.72;46.28;99914.47;2066986;28;2257;-62
2024/02/26 00:39:15;;;;;;;;;;;;;;;19.71;46.25;99921.63;2066830;28;2173;-62
2024/02/26 00:40:16;;;;;;;;;;;;;;;19.72;46.25;99918.06;2067707;28;2188;-62
2024/02/26 00:41:18;;;;;;;;;;;;;;;19.73;46.15;99918.84;2066731;28;2425;-63
2024/02/26 00:42:19;;;;;;;;;;;;;;;19.72;46.15;99915.22;2066762;28;2162;-63
2024/02/26 00:43:20;;;;;;;;;;;;;;;19.70;46.23;99915.16;2064869;28;2160;-63
2024/02/26 00:44:22;;;;;;;;;;;;;;;19.71;46.28;99913.03;2066242;28;2200;-63
2024/02/26 00:45:23;;;;;;;;;;;;;;;19.71;46.27;99913.03;2065929;28;2275;-63
2024/02/26 00:46:24;;;;;;;;;;;;;;;19.70;46.14;99917.28;2067923;28;2083;-63
2024/02/26 00:47:26;;;;;;;;;;;;;;;19.69;46.18;99915.81;2068474;28;2026;-62
2024/02/26 00:48:27;;;;;;;;;;;;;;;19.70;46.22;99908.66;2068455;28;1671;-63
2024/02/26 00:49:29;;;;;;;;;;;;;;;19.69;46.29;99910.06;2065361;28;2121;-63
2024/02/26 00:50:31;;;;;;;;;;;;;;;19.67;46.36;99908.56;2066693;28;2095;-62
2024/02/26 00:51:32;;;;;;;;;;;;;;;19.68;46.30;99909.31;2066027;28;2115;-62
2024/02/26 00:52:34;;;;;;;;;;;;;;;19.68;46.27;99915.06;2067995;28;2093;-63
2024/02/26 00:53:35;;;;;;;;;;;;;;;19.67;46.25;99902.81;2068042;28;1711;-62
2024/02/26 00:54:37;;;;;;;;;;;;;;;19.67;46.29;99905.69;2068302;28;1740;-63
2024/02/26 00:55:38;;;;;;;;;;;;;;;19.67;46.30;99902.81;2068611;28;1600;-63
2024/02/26 00:56:39;;;;;;;;;;;;;;;19.66;46.23;99907.09;2066902;28;2346;-62
2024/02/26 00:57:41;;;;;;;;;;;;;;;19.65;46.32;99905.66;2066390;28;2134;-63
2024/02/26 00:58:42;;;;;;;;;;;;;;;19.65;46.21;99911.38;2067069;28;2326;-63
2024/02/26 00:59:43;;;;;;;;;;;;;;;19.65;46.10;99908.50;2065353;28;2199;-63
2024/02/26 01:00:45;;;;;;;;;;;;;;;19.64;46.31;99907.03;2066603;28;6052;-63
2024/02/26 01:01:46;;;;;;;;;;;;;;;19.65;46.20;99902.78;2068991;28;2563;-62
2024/02/26 01:02:47;;;;;;;;;;;;;;;19.64;46.23;99904.16;2069116;28;2127;-62
2024/02/26 01:03:49;;;;;;;;;;;;;;;19.65;46.17;99911.38;2067007;28;2123;-63
2024/02/26 01:04:51;;;;;;;;;;;;;;;19.64;46.17;99915.66;2068481;28;2198;-63
2024/02/26 01:05:52;;;;;;;;;;;;;;;19.64;46.10;99918.53;2069690;28;2053;-63
2024/02/26 01:06:58;;;;;;;;;;;;;;;19.65;45.92;99917.13;2069676;28;2138;-62
2024/02/26 01:08:00;;;;;;;;;;;;;;;19.65;46.22;99917.13;2068865;28;2122;-63
2024/02/26 01:09:01;;;;;;;;;;;;;;;19.64;46.29;99909.91;2068710;28;2353;-62
2024/02/26 01:10:03;;;;;;;;;;;;;;;19.66;46.22;99915.72;2066974;28;2110;-62
2024/02/26 01:11:05;;;;;;;;;;;;;;;19.66;46.19;99912.13;2068316;28;2163;-63
2024/02/26 01:12:06;;;;;;;;;;;;;;;19.66;46.24;99915.72;2068350;28;2436;-62
2024/02/26 01:13:08;;;;;;;;;;;;;;;19.67;46.17;99908.56;2067629;28;2071;-63
2024/02/26 01:14:09;;;;;;;;;;;;;;;19.67;46.25;99908.56;2070508;28;2523;-63
2024/02/26 01:15:10;;;;;;;;;;;;;;;19.69;46.16;99907.94;2070278;28;2093;-63
2024/02/26 01:16:12;;;;;;;;;;;;;;;19.68;46.08;99903.56;2067821;28;2133;-62
2024/02/26 01:17:14;;;;;;;;;;;;;;;19.69;46.16;99898.59;2067839;28;2110;-62
2024/02/26 01:18:15;;;;;;;;;;;;;;;19.67;46.30;99902.81;2066705;28;2184;-63
2024/02/26 01:19:17;;;;;;;;;;;;;;;19.69;46.21;99904.34;2068469;28;2142;-63
2024/02/26 01:20:18;;;;;;;;;;;;;;;19.69;46.19;99904.34;2068377;28;2130;-63
2024/02/26 01:21:19;;;;;;;;;;;;;;;19.69;46.12;99899.31;2067348;28;2143;-63
2024/02/26 01:22:21;;;;;;;;;;;;;;;19.69;46.19;99905.06;2068551;28;2149;-67
2024/02/26 01:23:22;;;;;;;;;;;;;;;19.67;46.26;99902.81;2068285;28;2146;-66
2024/02/26 01:24:24;;;;;;;;;;;;;;;19.67;46.25;99914.31;2067905;28;2138;-64
2024/02/26 01:25:25;;;;;;;;;;;;;;;19.69;46.12;99904.34;2068635;28;2127;-64
2024/02/26 01:26:26;;;;;;;;;;;;;;;19.69;46.28;99904.34;2066687;28;2248;-64
2024/02/26 01:27:28;;;;;;;;;;;;;;;19.68;46.29;99900.69;2068718;28;2129;-64
2024/02/26 01:28:29;;;;;;;;;;;;;;;19.66;46.23;99907.09;2067381;28;2103;-64
2024/02/26 01:29:31;;;;;;;;;;;;;;;19.66;46.21;99909.97;2067959;28;2101;-64
2024/02/26 01:30:32;;;;;;;;;;;;;;;19.67;46.26;99904.97;2069130;28;6344;-64
2024/02/26 01:31:33;;;;;;;;;;;;;;;19.66;46.17;99915.72;2068096;28;1693;-64
2024/02/26 01:32:36;;;;;;;;;;;;;;;19.66;46.23;99901.34;2069015;28;1915;-64
2024/02/26 01:33:37;;;;;;;;;;;;;;;19.65;46.20;99908.50;2069028;28;2042;-64
2024/02/26 01:34:39;;;;;;;;;;;;;;;19.65;46.31;99899.91;2068922;28;2130;-64
2024/02/26 01:35:40;;;;;;;;;;;;;;;19.65;46.28;99905.66;2068841;28;1898;-64
2024/02/26 01:36:42;;;;;;;;;;;;;;;19.65;46.26;99904.88;2068087;28;2297;-64
2024/02/26 01:37:43;;;;;;;;;;;;;;;19.65;46.23;99910.63;2070248;28;1844;-63
2024/02/26 01:38:44;;;;;;;;;;;;;;;19.63;46.29;99902.69;2069164;28;2037;-64
2024/02/26 01:39:46;;;;;;;;;;;;;;;19.64;46.17;99909.16;2066143;28;2244;-64
2024/02/26 01:40:47;;;;;;;;;;;;;;;19.64;46.11;99903.44;2069240;28;2157;-64
2024/02/26 01:41:48;;;;;;;;;;;;;;;19.63;46.19;99896.97;2068572;28;2215;-64
2024/02/26 01:42:52;;;;;;;;;;;;;;;19.62;46.21;99904.09;2067624;28;2130;-64
2024/02/26 01:43:53;;;;;;;;;;;;;;;19.61;46.11;99899.75;2067854;28;2214;-64
2024/02/26 01:44:54;;;;;;;;;;;;;;;19.61;46.23;99894.00;2066874;28;2135;-64
2024/02/26 01:45:56;;;;;;;;;;;;;;;19.61;46.15;99893.28;2067775;28;2208;-64
2024/02/26 01:46:57;;;;;;;;;;;;;;;19.61;46.09;99899.75;2068068;28;2095;-64
2024/02/26 01:47:58;;;;;;;;;;;;;;;19.61;46.19;99896.88;2067505;28;2227;-64
2024/02/26 01:49:01;;;;;;;;;;;;;;;19.61;46.10;99902.63;2068072;28;2468;-64
2024/02/26 01:50:02;;;;;;;;;;;;;;;19.62;46.06;99898.34;2065854;28;2213;-64
2024/02/26 01:51:04;;;;;;;;;;;;;;;19.62;46.09;99895.47;2069095;28;2158;-63
2024/02/26 01:52:06;;;;;;;;;;;;;;;19.61;46.15;99888.28;2068230;28;2069;-64
2024/02/26 01:53:09;;;;;;;;;;;;;;;19.62;46.08;99898.34;2069315;28;1592;-64
2024/02/26 01:54:10;;;;;;;;;;;;;;;19.63;46.01;99890.47;2068957;28;2127;-64
2024/02/26 01:55:14;;;;;;;;;;;;;;;19.63;46.08;99894.09;2067452;28;2083;-64
2024/02/26 01:56:15;;;;;;;;;;;;;;;19.64;46.14;99895.53;2067763;28;2202;-64
2024/02/26 01:57:17;;;;;;;;;;;;;;;19.64;46.08;99897.69;2066587;28;2126;-64
2024/02/26 01:58:19;;;;;;;;;;;;;;;19.65;46.12;99899.16;2067985;28;2135;-64
2024/02/26 01:59:20;;;;;;;;;;;;;;;19.64;46.05;99898.41;2065154;28;2382;-64
2024/02/26 02:00:22;;;;;;;;;;;;;;;19.65;46.13;99899.16;2063743;28;6260;-64
2024/02/26 02:01:31;;;;;;;;;;;;;;;19.64;45.98;99898.41;2068992;28;2079;-64
2024/02/26 02:02:32;;;;;;;;;;;;;;;19.65;46.17;99899.91;2069413;28;2142;-64
2024/02/26 02:03:33;;;;;;;;;;;;;;;19.65;46.02;99891.28;2066665;28;2107;-64
2024/02/26 02:04:36;;;;;;;;;;;;;;;19.64;46.03;99892.66;2068464;28;2154;-65
2024/02/26 02:05:42;;;;;;;;;;;;;;;19.64;46.17;99904.16;2066265;28;2188;-64
2024/02/26 02:06:45;;;;;;;;;;;;;;;19.65;46.22;99893.41;2066983;28;2071;-63
2024/02/26 02:07:48;;;;;;;;;;;;;;;19.64;46.08;99900.56;2068506;28;2119;-64
2024/02/26 02:08:49;;;;;;;;;;;;;;;19.64;46.15;99895.53;2068091;28;2139;-63
2024/02/26 02:09:51;;;;;;;;;;;;;;;19.64;46.15;99895.53;2066522;28;2098;-64
2024/02/26 02:10:52;;;;;;;;;;;;;;;19.64;45.92;99900.56;2067256;28;2133;-64
2024/02/26 02:11:54;;;;;;;;;;;;;;;19.63;46.14;99899.81;2067804;28;2201;-64
2024/02/26 02:12:55;;;;;;;;;;;;;;;19.63;46.18;99896.19;2066806;28;2099;-63
2024/02/26 02:13:57;;;;;;;;;;;;;;;19.62;46.20;99895.47;2066314;28;2135;-64
2024/02/26 02:14:58;;;;;;;;;;;;;;;19.62;46.20;99898.34;2067536;28;2468;-63
2024/02/26 02:16:00;;;;;;;;;;;;;;;19.62;46.18;99889.00;2069192;28;2546;-64
2024/02/26 02:17:01;;;;;;;;;;;;;;;19.62;46.24;99878.25;2068664;28;2147;-63
2024/02/26 02:18:02;;;;;;;;;;;;;;;19.61;46.26;99890.41;2067594;28;2142;-64
2024/02/26 02:19:04;;;;;;;;;;;;;;;19.60;46.11;99886.06;2066535;28;2136;-64
2024/02/26 02:20:09;;;;;;;;;;;;;;;19.60;46.22;99886.78;2066922;28;2071;-63
2024/02/26 02:21:11;;;;;;;;;;;;;;;19.60;46.14;99886.06;2063915;28;2692;-64
2024/02/26 02:22:12;;;;;;;;;;;;;;;19.60;46.19;99892.53;2065626;28;2548;-63
2024/02/26 02:23:14;;;;;;;;;;;;;;;19.61;46.22;99894.00;2068045;28;2106;-64
2024/02/26 02:24:15;;;;;;;;;;;;;;;19.61;46.17;99891.13;2068538;28;2063;-64
2024/02/26 02:25:16;;;;;;;;;;;;;;;19.61;46.16;99894.00;2066689;28;2142;-64
2024/02/26 02:26:18;;;;;;;;;;;;;;;19.62;46.09;99901.22;2067552;28;2091;-64
2024/02/26 02:27:20;;;;;;;;;;;;;;;19.62;46.03;99901.22;2066313;28;2276;-63
2024/02/26 02:28:21;;;;;;;;;;;;;;;19.62;46.06;99892.59;2064289;28;2400;-64
2024/02/26 02:29:23;;;;;;;;;;;;;;;19.63;46.07;99902.69;2067098;28;2022;-64
2024/02/26 02:30:26;;;;;;;;;;;;;;;19.63;46.09;99894.09;2064142;28;6248;-63
2024/02/26 02:31:28;;;;;;;;;;;;;;;19.62;46.11;99892.59;2065653;28;2014;-65
2024/02/26 02:32:29;;;;;;;;;;;;;;;19.63;46.09;99894.09;2067816;28;2132;-64
2024/02/26 02:33:31;;;;;;;;;;;;;;;19.63;46.05;99896.97;2068233;28;2550;-63
2024/02/26 02:34:33;;;;;;;;;;;;;;;19.64;46.10;99903.44;2067830;28;2174;-64
2024/02/26 02:35:35;;;;;;;;;;;;;;;19.63;46.10;99896.97;2067681;28;2198;-64
2024/02/26 02:36:48;;;;;;;;;;;;;;;19.63;46.05;99899.81;2067485;28;2122;-64
2024/02/26 02:37:50;;;;;;;;;;;;;;;19.63;46.07;99902.69;2066885;28;2247;-64
2024/02/26 02:38:52;;;;;;;;;;;;;;;19.64;46.00;99898.41;2066649;28;2135;-63
2024/02/26 02:39:54;;;;;;;;;;;;;;;19.63;46.11;99902.69;2067675;28;2190;-64
2024/02/26 02:40:56;;;;;;;;;;;;;;;19.63;46.19;99896.97;2066959;28;2095;-64
2024/02/26 02:41:57;;;;;;;;;;;;;;;19.62;46.01;99901.22;2067848;28;2095;-64
2024/02/26 02:42:59;;;;;;;;;;;;;;;19.63;46.18;99902.69;2068015;28;2215;-64
2024/02/26 02:44:02;;;;;;;;;;;;;;;19.63;46.18;99896.19;2066667;28;2150;-64
2024/02/26 02:45:03;;;;;;;;;;;;;;;19.62;46.18;99901.22;2066918;28;2146;-64
2024/02/26 02:46:05;;;;;;;;;;;;;;;19.63;46.19;99896.97;2068130;28;2134;-64
2024/02/26 02:47:06;;;;;;;;;;;;;;;19.61;46.20;99899.75;2068367;28;2106;-64
2024/02/26 02:48:08;;;;;;;;;;;;;;;19.62;46.09;99900.47;2067260;28;2130;-64
2024/02/26 02:49:10;;;;;;;;;;;;;;;19.61;46.03;99894.00;2068066;28;2131;-64
2024/02/26 02:50:12;;;;;;;;;;;;;;;19.60;46.26;99895.41;2066102;28;2110;-63
2024/02/26 02:51:13;;;;;;;;;;;;;;;19.60;46.24;99898.28;2068901;28;2330;-64
2024/02/26 02:52:14;;;;;;;;;;;;;;;19.60;46.18;99898.28;2069249;28;1777;-64
2024/02/26 02:53:16;;;;;;;;;;;;;;;19.60;46.00;99897.53;2067743;28;2078;-65
2024/02/26 02:54:17;;;;;;;;;;;;;;;19.60;46.14;99898.28;2065255;28;2245;-63
2024/02/26 02:55:19;;;;;;;;;;;;;;;19.59;46.09;99902.56;2068140;28;2126;-64
2024/02/26 02:56:20;;;;;;;;;;;;;;;19.59;46.15;99908.31;2067783;28;2517;-64
2024/02/26 02:57:22;;;;;;;;;;;;;;;19.59;46.15;99898.97;2067939;28;2099;-64
2024/02/26 02:58:23;;;;;;;;;;;;;;;19.58;46.15;99906.81;2065722;28;2081;-63
2024/02/26 02:59:25;;;;;;;;;;;;;;;19.58;46.11;99903.94;2067079;28;2176;-64
2024/02/26 03:00:26;;;;;;;;;;;;;;;19.57;46.12;99905.34;2066040;28;6098;-64
2024/02/26 03:01:28;;;;;;;;;;;;;;;19.56;46.20;99903.91;2067705;28;2091;-64
2024/02/26 03:02:29;;;;;;;;;;;;;;;19.57;46.12;99911.09;2067628;28;2106;-63
2024/02/26 03:03:31;;;;;;;;;;;;;;;19.58;46.10;99908.97;2065328;28;2146;-64
2024/02/26 03:04:32;;;;;;;;;;;;;;;19.57;46.16;99916.09;2067233;28;2227;-63
2024/02/26 03:05:33;;;;;;;;;;;;;;;19.57;46.18;99905.34;2067691;28;2087;-64
2024/02/26 03:06:35;;;;;;;;;;;;;;;19.58;46.15;99912.56;2066440;28;2176;-63
2024/02/26 03:07:36;;;;;;;;;;;;;;;19.58;46.16;99917.56;2068077;28;2072;-63
2024/02/26 03:08:39;;;;;;;;;;;;;;;19.58;46.20;99912.56;2068014;28;2197;-64
2024/02/26 03:09:41;;;;;;;;;;;;;;;19.58;46.11;99918.31;2068705;28;2065;-64
2024/02/26 03:10:43;;;;;;;;;;;;;;;19.57;46.08;99913.97;2068684;28;2122;-64
2024/02/26 03:11:44;;;;;;;;;;;;;;;19.59;45.99;99913.31;2069387;28;1689;-64
2024/02/26 03:12:46;;;;;;;;;;;;;;;19.58;46.08;99909.69;2067061;28;2140;-64
2024/02/26 03:13:47;;;;;;;;;;;;;;;19.59;46.05;99910.44;2066525;28;2296;-64
2024/02/26 03:14:48;;;;;;;;;;;;;;;19.59;46.09;99902.56;2065507;28;2123;-64
2024/02/26 03:15:50;;;;;;;;;;;;;;;19.59;46.07;99899.69;2066767;28;2217;-64
2024/02/26 03:16:55;;;;;;;;;;;;;;;19.60;46.11;99903.28;2067323;28;2217;-63
2024/02/26 03:17:56;;;;;;;;;;;;;;;19.60;46.10;99904.00;2065904;28;2078;-64
2024/02/26 03:18:57;;;;;;;;;;;;;;;19.61;46.01;99905.50;2068417;28;2072;-64
2024/02/26 03:19:59;;;;;;;;;;;;;;;19.59;46.10;99908.31;2069346;28;2070;-63
2024/02/26 03:21:00;;;;;;;;;;;;;;;19.60;46.10;99898.28;2064801;28;2178;-64
2024/02/26 03:22:02;;;;;;;;;;;;;;;19.59;46.14;99902.56;2067098;28;2126;-64
2024/02/26 03:23:03;;;;;;;;;;;;;;;19.58;46.12;99906.81;2067184;28;2122;-64
2024/02/26 03:24:05;;;;;;;;;;;;;;;19.60;46.14;99906.16;2066559;28;2171;-64
2024/02/26 03:25:07;;;;;;;;;;;;;;;19.60;46.11;99903.28;2067560;28;2126;-64
2024/02/26 03:26:11;;;;;;;;;;;;;;;19.59;46.12;99902.56;2066432;28;2159;-64
2024/02/26 03:27:12;;;;;;;;;;;;;;;19.58;46.13;99906.81;2066954;28;2389;-64
2024/02/26 03:28:14;;;;;;;;;;;;;;;19.59;46.19;99896.09;2068543;28;2152;-63
2024/02/26 03:29:15;;;;;;;;;;;;;;;19.58;46.17;99895.31;2065322;28;2122;-63
2024/02/26 03:30:16;;;;;;;;;;;;;;;19.57;46.18;99893.88;2066424;28;6454;-64
2024/02/26 03:31:18;;;;;;;;;;;;;;;19.57;46.13;99899.63;2068881;28;1688;-64
2024/02/26 03:32:19;;;;;;;;;;;;;;;19.57;46.01;99893.13;2064782;28;2237;-64
2024/02/26 03:33:20;;;;;;;;;;;;;;;19.57;46.08;99896.00;2066975;28;2147;-63
2024/02/26 03:34:22;;;;;;;;;;;;;;;19.57;46.12;99898.88;2066623;28;2115;-64
2024/02/26 03:35:23;;;;;;;;;;;;;;;19.56;46.16;99903.13;2066780;28;2345;-64
2024/02/26 03:36:25;;;;;;;;;;;;;;;19.56;46.09;99900.28;2066453;28;2137;-64
2024/02/26 03:37:27;;;;;;;;;;;;;;;19.56;46.08;99901.03;2065677;28;2139;-64
2024/02/26 03:38:28;;;;;;;;;;;;;;;19.56;46.23;99908.88;2065531;28;2162;-64
2024/02/26 03:39:30;;;;;;;;;;;;;;;19.56;46.15;99903.91;2066678;28;2257;-64
2024/02/26 03:40:32;;;;;;;;;;;;;;;19.56;46.05;99912.50;2066324;28;2201;-64
2024/02/26 03:41:34;;;;;;;;;;;;;;;19.56;46.19;99915.38;2067806;28;2247;-64
2024/02/26 03:42:35;;;;;;;;;;;;;;;19.55;46.08;99913.91;2065844;28;2114;-64
2024/02/26 03:43:36;;;;;;;;;;;;;;;19.56;46.14;99915.38;2066647;28;2122;-63
2024/02/26 03:44:38;;;;;;;;;;;;;;;19.57;46.10;99922.59;2066261;28;2155;-64
2024/02/26 03:45:39;;;;;;;;;;;;;;;19.57;46.08;99925.47;2066668;28;2178;-64
2024/02/26 03:46:42;;;;;;;;;;;;;;;19.57;46.10;99916.84;2067553;28;2478;-64
2024/02/26 03:47:44;;;;;;;;;;;;;;;19.58;46.11;99918.31;2068083;28;2048;-64
2024/02/26 03:48:45;;;;;;;;;;;;;;;19.59;46.01;99916.91;2064948;28;2448;-64
2024/02/26 03:49:47;;;;;;;;;;;;;;;19.58;46.02;99918.31;2064919;28;2164;-64
2024/02/26 03:50:48;;;;;;;;;;;;;;;19.60;46.00;99927.00;2066030;28;2155;-64
2024/02/26 03:51:50;;;;;;;;;;;;;;;19.61;46.06;99928.47;2066108;28;2464;-64
2024/02/26 03:52:51;;;;;;;;;;;;;;;19.61;46.14;99914.13;2065770;28;2444;-64
2024/02/26 03:53:52;;;;;;;;;;;;;;;19.60;46.10;99921.25;2067694;28;2188;-64
2024/02/26 03:54:54;;;;;;;;;;;;;;;19.61;46.09;99917.00;2066954;28;2091;-64
2024/02/26 03:55:55;;;;;;;;;;;;;;;19.62;46.05;99918.44;2066494;28;2158;-64
2024/02/26 03:56:56;;;;;;;;;;;;;;;19.62;46.05;99923.47;2066021;28;2144;-64
2024/02/26 03:57:58;;;;;;;;;;;;;;;19.63;45.97;99924.91;2067237;28;2345;-64
2024/02/26 03:59:01;;;;;;;;;;;;;;;19.62;46.05;99924.19;2065920;28;2372;-63
2024/02/26 04:00:03;;;;;;;;;;;;;;;19.62;45.95;99924.19;2066410;28;6256;-64
2024/02/26 04:01:07;;;;;;;;;;;;;;;19.63;46.02;99922.81;2065730;28;2146;-63
2024/02/26 04:02:09;;;;;;;;;;;;;;;19.63;46.05;99922.81;2067218;28;2178;-64
2024/02/26 04:03:11;;;;;;;;;;;;;;;19.64;46.02;99921.38;2066220;28;2119;-64
2024/02/26 04:04:12;;;;;;;;;;;;;;;19.65;46.11;99916.38;2066276;28;2171;-64
2024/02/26 04:05:14;;;;;;;;;;;;;;;19.64;45.95;99920.66;2066539;28;2381;-63
2024/02/26 04:06:17;;;;;;;;;;;;;;;19.64;46.06;99921.38;2066832;28;2162;-64
2024/02/26 04:07:19;;;;;;;;;;;;;;;19.65;46.10;99922.88;2067033;28;2158;-63
2024/02/26 04:08:20;;;;;;;;;;;;;;;19.66;46.08;99930.09;2067646;28;2274;-64
2024/02/26 04:09:22;;;;;;;;;;;;;;;19.65;46.08;99928.63;2067006;28;2142;-64
2024/02/26 04:10:23;;;;;;;;;;;;;;;19.66;46.09;99917.84;2066525;28;2135;-64
2024/02/26 04:11:24;;;;;;;;;;;;;;;19.66;46.10;99926.47;2065963;28;2084;-63
2024/02/26 04:12:26;;;;;;;;;;;;;;;19.66;46.02;99930.09;2066936;28;2175;-64
2024/02/26 04:13:27;;;;;;;;;;;;;;;19.67;46.06;99925.78;2065789;28;2185;-63
2024/02/26 04:14:29;;;;;;;;;;;;;;;19.69;46.10;99930.19;2067783;28;2154;-64
2024/02/26 04:15:30;;;;;;;;;;;;;;;19.67;46.04;99930.81;2065952;28;2139;-64
2024/02/26 04:16:31;;;;;;;;;;;;;;;19.69;46.13;99930.19;2067187;28;2238;-63
2024/02/26 04:17:33;;;;;;;;;;;;;;;19.67;46.08;99937.28;2065723;28;2371;-64
2024/02/26 04:18:34;;;;;;;;;;;;;;;19.67;46.04;99928.66;2067130;28;2079;-63
2024/02/26 04:19:36;;;;;;;;;;;;;;;19.68;46.06;99932.28;2066387;28;2118;-64
2024/02/26 04:20:37;;;;;;;;;;;;;;;19.70;46.00;99928.75;2065973;28;2125;-64
2024/02/26 04:21:41;;;;;;;;;;;;;;;19.70;46.12;99943.13;2067251;28;2150;-64
2024/02/26 04:22:42;;;;;;;;;;;;;;;19.71;46.08;99930.25;2066143;28;2265;-64
2024/02/26 04:23:43;;;;;;;;;;;;;;;19.70;46.04;99932.41;2066807;28;2141;-65
2024/02/26 04:24:45;;;;;;;;;;;;;;;19.70;46.10;99941.00;2065711;28;2298;-64
2024/02/26 04:25:46;;;;;;;;;;;;;;;19.70;46.07;99943.13;2065521;28;2241;-63
2024/02/26 04:26:49;;;;;;;;;;;;;;;19.71;45.97;99941.75;2066617;28;2171;-64
2024/02/26 04:27:51;;;;;;;;;;;;;;;19.71;46.08;99938.88;2067477;28;2162;-64
2024/02/26 04:28:52;;;;;;;;;;;;;;;19.71;46.12;99941.75;2066647;28;2162;-64
2024/02/26 04:29:54;;;;;;;;;;;;;;;19.72;45.95;99949.66;2066031;28;2194;-64
2024/02/26 04:30:55;;;;;;;;;;;;;;;19.72;46.08;99957.56;2065826;28;6102;-64
2024/02/26 04:31:57;;;;;;;;;;;;;;;19.72;46.12;99954.69;2067269;28;2099;-64
2024/02/26 04:32:58;;;;;;;;;;;;;;;19.72;46.13;99954.69;2065966;28;2315;-64
2024/02/26 04:34:00;;;;;;;;;;;;;;;19.72;46.05;99949.66;2066179;28;2278;-64
2024/02/26 04:35:04;;;;;;;;;;;;;;;19.73;46.04;99944.69;2065552;28;2401;-64
2024/02/26 04:36:14;;;;;;;;;;;;;;;19.72;46.02;99957.56;2067362;28;2441;-64
2024/02/26 04:37:15;;;;;;;;;;;;;;;19.70;46.06;99946.75;2069821;28;1637;-64
2024/02/26 04:38:17;;;;;;;;;;;;;;;19.70;46.07;99946.00;2066422;28;2110;-64
2024/02/26 04:39:18;;;;;;;;;;;;;;;19.69;46.00;99950.28;2067122;28;2166;-64
2024/02/26 04:40:19;;;;;;;;;;;;;;;19.71;46.05;99947.47;2066044;28;2183;-63
2024/02/26 04:41:21;;;;;;;;;;;;;;;19.70;46.06;99951.75;2065175;28;2134;-64
2024/02/26 04:42:22;;;;;;;;;;;;;;;19.69;46.08;99953.16;2066601;28;2190;-64
2024/02/26 04:43:24;;;;;;;;;;;;;;;19.69;46.00;99951.00;2066166;28;2116;-64
2024/02/26 04:44:25;;;;;;;;;;;;;;;19.70;46.02;99955.38;2065859;28;2217;-64
2024/02/26 04:45:26;;;;;;;;;;;;;;;19.67;46.08;99948.78;2066533;28;2146;-64
2024/02/26 04:46:28;;;;;;;;;;;;;;;19.68;46.19;99958.16;2065684;28;2138;-64
2024/02/26 04:47:30;;;;;;;;;;;;;;;19.66;46.15;99953.06;2063955;28;2142;-64
2024/02/26 04:48:31;;;;;;;;;;;;;;;19.68;46.15;99949.53;2064839;28;2168;-64
2024/02/26 04:49:33;;;;;;;;;;;;;;;19.69;46.02;99956.75;2066690;28;2105;-63
2024/02/26 04:50:35;;;;;;;;;;;;;;;19.69;45.93;99958.91;2064973;28;2270;-64
2024/02/26 04:51:37;;;;;;;;;;;;;;;19.69;46.13;99958.91;2066927;28;2221;-64
2024/02/26 04:52:38;;;;;;;;;;;;;;;19.68;46.21;99961.00;2066464;28;2127;-63
2024/02/26 04:53:39;;;;;;;;;;;;;;;19.67;46.08;99960.25;2065681;28;2212;-64
2024/02/26 04:54:41;;;;;;;;;;;;;;;19.68;46.13;99955.28;2066554;28;2156;-64
2024/02/26 04:55:42;;;;;;;;;;;;;;;19.67;45.99;99960.25;2065863;28;2442;-64
2024/02/26 04:56:44;;;;;;;;;;;;;;;19.67;46.08;99960.25;2065383;28;2158;-63
2024/02/26 04:57:45;;;;;;;;;;;;;;;19.69;46.04;99956.03;2066320;28;2103;-64
2024/02/26 04:58:46;;;;;;;;;;;;;;;19.67;45.91;99957.38;2066287;28;2125;-64
2024/02/26 04:59:48;;;;;;;;;;;;;;;19.69;45.98;99958.91;2064004;28;2122;-64
2024/02/26 05:00:49;;;;;;;;;;;;;;;19.70;46.04;99966.09;2065824;28;6081;-64
2024/02/26 05:01:52;;;;;;;;;;;;;;;19.71;46.08;99958.97;2066071;28;2291;-64
2024/02/26 05:02:54;;;;;;;;;;;;;;;19.70;46.16;99963.22;2066383;28;2588;-64
2024/02/26 05:03:55;;;;;;;;;;;;;;;19.71;45.99;99964.72;2064917;28;2564;-63
2024/02/26 05:04:57;;;;;;;;;;;;;;;19.71;46.07;99967.59;2065863;28;2186;-64
2024/02/26 05:05:58;;;;;;;;;;;;;;;19.72;45.93;99971.91;2066626;28;2117;-64
2024/02/26 05:07:00;;;;;;;;;;;;;;;19.71;46.06;99973.34;2067617;28;2032;-64
2024/02/26 05:08:02;;;;;;;;;;;;;;;19.72;46.09;99969.03;2066510;28;2156;-64
2024/02/26 05:09:04;;;;;;;;;;;;;;;19.71;45.97;99970.47;2066150;28;2416;-64
2024/02/26 05:10:05;;;;;;;;;;;;;;;19.72;46.10;99978.41;2064712;28;2138;-64
2024/02/26 05:11:07;;;;;;;;;;;;;;;19.72;45.99;99972.66;2064580;28;2063;-64
2024/02/26 05:12:08;;;;;;;;;;;;;;;19.73;45.98;99977.00;2064845;28;2119;-63
2024/02/26 05:13:10;;;;;;;;;;;;;;;19.74;46.06;99983.47;2068115;28;2178;-64
2024/02/26 05:14:11;;;;;;;;;;;;;;;19.74;46.09;99977.75;2067814;28;1983;-64
2024/02/26 05:15:17;;;;;;;;;;;;;;;19.74;46.06;99974.88;2065897;28;2149;-64
2024/02/26 05:16:21;;;;;;;;;;;;;;;19.74;45.96;99980.63;2066148;28;2092;-64
2024/02/26 05:17:22;;;;;;;;;;;;;;;19.74;46.06;99974.88;2066983;28;2259;-65
2024/02/26 05:18:27;;;;;;;;;;;;;;;19.75;46.07;99984.97;2066023;28;2103;-64
2024/02/26 05:19:28;;;;;;;;;;;;;;;19.75;46.07;99984.97;2066544;28;2173;-64
2024/02/26 05:20:31;;;;;;;;;;;;;;;19.75;45.96;99984.97;2066159;28;2103;-64
2024/02/26 05:21:33;;;;;;;;;;;;;;;19.75;45.94;99982.09;2065760;28;2142;-63
2024/02/26 05:22:35;;;;;;;;;;;;;;;19.76;46.06;99986.44;2066595;28;2198;-64
2024/02/26 05:23:36;;;;;;;;;;;;;;;19.76;46.00;99977.81;2066300;28;2111;-63
2024/02/26 05:24:37;;;;;;;;;;;;;;;19.76;46.04;99983.56;2066401;28;2528;-63
2024/02/26 05:25:39;;;;;;;;;;;;;;;19.76;46.03;99983.56;2066055;28;2229;-64